Time;durP1;ratioP1;P1;durP2;ratioP2;P2;SDS_P1;SDS_P2;PMS_P1;PMS_P2;Temp;Humidity;BMP_temperature;BMP_pressure;BME280_temperature;BME280_humidity;BME280_pressure;Samples;Min_cycle;Max_cycle;Signal;HPM_P1;HPM_P2
2021/11/09 00:02:22;;;;;;;;;12.75;12.75;;;;;21.11;39.02;102143.94;4956767;28;51130;-53
2021/11/09 00:04:52;;;;;;;;;12.75;11.75;;;;;21.10;38.58;102138.63;4961770;28;51226;-54
2021/11/09 00:10:29;;;;;;;;;15.00;13.25;;;;;21.07;38.48;102141.78;4963485;28;51238;-52
2021/11/09 00:12:33;;;;;;;;;18.00;15.00;;;;;21.04;38.51;102127.34;4964907;28;51484;-53
2021/11/09 00:15:00;;;;;;;;;18.50;15.50;;;;;21.04;38.90;102132.00;4956274;28;51129;-53
2021/11/09 00:17:27;;;;;;;;;16.75;15.25;;;;;21.03;38.75;102124.78;4964569;28;51356;-53
2021/11/09 00:19:54;;;;;;;;;14.75;14.25;;;;;21.00;38.88;102123.28;4959374;28;51220;-53
2021/11/09 00:22:20;;;;;;;;;15.50;14.50;;;;;20.98;38.88;102125.38;4957450;28;51100;-51
2021/11/09 00:24:46;;;;;;;;;12.25;11.50;;;;;20.98;38.90;102117.13;4956859;28;51132;-52
2021/11/09 00:27:12;;;;;;;;;14.75;12.50;;;;;20.97;38.85;102120.06;4964866;28;51166;-50
2021/11/09 00:29:38;;;;;;;;;17.25;14.00;;;;;20.95;39.10;102114.75;4967260;28;51880;-51
2021/11/09 00:32:05;;;;;;;;;20.75;15.75;;;;;20.94;39.00;102114.94;4962821;28;51089;-48
2021/11/09 00:34:30;;;;;;;;;18.25;17.50;;;;;20.93;39.04;102121.47;4961133;28;51219;-50
2021/11/09 00:36:56;;;;;;;;;19.75;16.25;;;;;20.92;38.98;102119.78;4958344;28;51229;-54
2021/11/09 00:39:22;;;;;;;;;14.75;14.25;;;;;20.91;39.17;102120.84;4957787;28;52626;-50
2021/11/09 00:41:47;;;;;;;;;18.25;15.00;;;;;20.89;39.41;102117.44;4959019;28;51195;-49
2021/11/09 00:44:13;;;;;;;;;20.50;15.75;;;;;20.87;39.11;102109.38;4966945;28;51326;-52
2021/11/09 00:46:38;;;;;;;;;19.25;16.50;;;;;20.86;39.00;102112.31;4965949;28;50954;-51
2021/11/09 00:49:04;;;;;;;;;20.25;18.25;;;;;20.86;38.92;102104.06;4953216;28;51990;-52
2021/11/09 00:51:29;;;;;;;;;19.75;17.50;;;;;20.84;38.97;102107.00;4953680;28;51450;-51
2021/11/09 00:53:55;;;;;;;;;16.50;16.50;;;;;20.82;39.09;102111.84;4968098;28;51168;-52
2021/11/09 00:56:21;;;;;;;;;23.00;20.50;;;;;20.81;38.86;102112.88;4955000;28;51119;-48
2021/11/09 00:58:46;;;;;;;;;16.50;15.75;;;;;20.82;38.85;102110.97;4965252;28;51377;-53
2021/11/09 01:01:11;;;;;;;;;20.25;18.25;;;;;20.79;39.00;102112.22;4972430;28;51120;-53
2021/11/09 01:03:37;;;;;;;;;19.00;17.00;;;;;20.79;39.00;102120.50;4962635;28;51233;-54
2021/11/09 01:06:02;;;;;;;;;19.50;16.50;;;;;20.77;39.23;102118.97;4968389;28;51224;-50
2021/11/09 01:08:28;;;;;;;;;23.00;18.50;;;;;20.77;39.25;102127.25;4962169;28;51092;-53
2021/11/09 01:10:54;;;;;;;;;21.25;16.75;;;;;20.75;39.22;102124.69;4953483;28;51042;-53
2021/11/09 01:13:23;;;;;;;;;23.00;22.25;;;;;20.73;38.99;102126.75;4953368;28;51177;-52
2021/11/09 01:15:50;;;;;;;;;18.25;18.25;;;;;20.73;39.27;102127.59;4970866;28;51151;-51
2021/11/09 01:18:18;;;;;;;;;19.00;18.50;;;;;20.72;39.10;102130.56;4960210;28;51703;-51
2021/11/09 01:20:44;;;;;;;;;22.00;18.50;;;;;20.70;38.83;102122.50;4953242;28;51211;-53
2021/11/09 01:23:10;;;;;;;;;19.25;15.25;;;;;20.70;39.10;102133.50;4952989;28;51587;-51
2021/11/09 01:25:35;;;;;;;;;20.75;18.00;;;;;20.69;39.26;102128.19;4968626;28;51070;-50
2021/11/09 01:28:00;;;;;;;;;18.25;15.00;;;;;20.68;39.10;102132.00;4960376;28;51542;-51
2021/11/09 01:30:27;;;;;;;;;20.00;19.00;;;;;20.67;39.32;102130.31;4968876;28;50962;-51
2021/11/09 01:32:53;;;;;;;;;24.75;19.50;;;;;20.66;39.15;102129.44;4952995;28;51080;-52
2021/11/09 01:35:19;;;;;;;;;23.00;20.50;;;;;20.65;39.53;102129.66;4953210;28;51288;-51
2021/11/09 01:37:46;;;;;;;;;23.25;20.75;;;;;20.65;39.21;102137.91;4955667;28;51125;-53
2021/11/09 01:40:12;;;;;;;;;20.50;16.00;;;;;20.63;39.38;102135.31;4970805;28;51421;-51
2021/11/09 01:42:39;;;;;;;;;25.75;19.75;;;;;20.62;39.59;102139.13;4956103;28;51065;-51
2021/11/09 01:45:07;;;;;;;;;23.25;21.00;;;;;20.62;39.25;102141.03;4972021;28;51139;-52
2021/11/09 01:47:33;;;;;;;;;23.75;20.00;;;;;20.60;39.22;102141.22;4960151;28;51973;-53
2021/11/09 01:49:59;;;;;;;;;20.00;17.25;;;;;20.59;39.49;102136.75;4974530;28;51025;-48
2021/11/09 01:52:25;;;;;;;;;28.00;22.50;;;;;20.59;39.06;102145.03;4958631;28;50948;-51
2021/11/09 01:54:50;;;;;;;;;20.00;17.75;;;;;20.57;39.22;102138.84;4965656;28;51283;-50
2021/11/09 01:57:16;;;;;;;;;19.75;18.50;;;;;20.56;39.37;102131.66;4955726;28;52622;-52
2021/11/09 01:59:42;;;;;;;;;18.75;16.75;;;;;20.56;39.48;102139.91;4972120;28;51092;-49
2021/11/09 02:02:08;;;;;;;;;19.50;18.25;;;;;20.55;39.48;102129.94;4974687;28;51227;-53
2021/11/09 02:04:33;;;;;;;;;21.50;20.25;;;;;20.54;39.64;102132.91;4964892;28;50900;-52
2021/11/09 02:06:58;;;;;;;;;22.25;19.50;;;;;20.53;39.54;102128.41;4974592;28;50980;-51
2021/11/09 02:09:24;;;;;;;;;19.00;18.00;;;;;20.53;39.42;102131.16;4972816;28;51101;-51
2021/11/09 02:11:49;;;;;;;;;24.00;20.75;;;;;20.52;39.48;102135.81;4957294;28;51188;-52
2021/11/09 02:14:15;;;;;;;;;25.00;22.75;;;;;20.51;39.57;102131.34;4956569;28;51213;-51
2021/11/09 02:16:42;;;;;;;;;19.25;19.25;;;;;20.50;39.80;102126.91;4956883;28;51247;-51
2021/11/09 02:19:07;;;;;;;;;23.25;21.50;;;;;20.49;39.81;102130.69;4955568;28;51165;-47
2021/11/09 02:21:33;;;;;;;;;24.50;22.25;;;;;20.48;39.52;102140.00;4974742;28;51075;-48
2021/11/09 02:23:59;;;;;;;;;23.25;21.75;;;;;20.47;39.36;102138.31;4964994;28;51289;-51
2021/11/09 02:26:25;;;;;;;;;26.25;22.75;;;;;20.47;39.64;102135.53;4957957;28;50980;-51
2021/11/09 02:28:55;;;;;;;;;20.75;18.75;;;;;20.46;39.44;102134.69;4961625;28;51257;-51
2021/11/09 02:31:21;;;;;;;;;25.75;22.25;;;;;20.45;39.91;102141.25;4963223;28;51508;-53
2021/11/09 02:33:47;;;;;;;;;24.25;21.75;;;;;20.44;39.65;102149.69;4962816;28;51282;-51
2021/11/09 02:36:12;;;;;;;;;25.75;23.25;;;;;20.43;39.51;102146.09;4972609;28;52428;-51
2021/11/09 02:38:38;;;;;;;;;23.50;21.50;;;;;20.43;39.58;102148.00;4973771;28;51141;-50
2021/11/09 02:41:04;;;;;;;;;23.00;22.50;;;;;20.43;39.48;102159.00;4973015;28;51059;-53
2021/11/09 02:43:30;;;;;;;;;23.75;22.75;;;;;20.40;39.39;102146.41;4972107;28;51061;-52
2021/11/09 02:49:19;;;;;;;;;24.75;21.25;;;;;20.40;39.66;102149.19;4953581;28;51500;-51
2021/11/09 02:54:22;;;;;;;;;27.25;22.75;;;;;20.38;39.49;102150.41;4971497;28;51103;-51
2021/11/09 02:56:57;;;;;;;;;27.75;27.50;;;;;20.37;39.98;102156.97;4972361;28;51828;-49
2021/11/09 03:02:09;;;;;;;;;24.50;22.00;;;;;20.35;39.78;102148.06;4955312;28;50958;-52
2021/11/09 03:05:24;;;;;;;;;25.50;22.50;;;;;20.35;39.63;102150.81;4955931;28;51418;-51
2021/11/09 03:07:33;;;;;;;;;28.75;25.25;;;;;20.34;39.59;102152.72;4975425;28;51148;-53
2021/11/09 03:10:06;;;;;;;;;24.75;22.75;;;;;20.35;39.84;102156.31;4956467;28;51629;-49
2021/11/09 03:12:33;;;;;;;;;28.00;23.00;;;;;20.32;39.83;102154.81;4954702;28;50958;-48
2021/11/09 03:14:59;;;;;;;;;27.50;25.25;;;;;20.33;39.75;102151.00;4957485;28;51119;-52
2021/11/09 03:17:32;;;;;;;;;22.50;22.25;;;;;20.33;39.86;102141.91;4954762;28;52051;-51
2021/11/09 03:20:00;;;;;;;;;26.00;21.75;;;;;20.32;39.77;102142.91;4962967;28;51629;-51
2021/11/09 03:47:19;;;;;;;;;22.75;19.50;;;;;20.22;39.84;102140.47;4957540;28;51256;-52
2021/11/09 03:49:45;;;;;;;;;27.00;25.25;;;;;20.22;39.86;102139.59;4972713;28;52021;-49
2021/11/09 03:52:22;;;;;;;;;26.25;23.75;;;;;20.22;39.91;102147.84;4969141;28;51082;-51
2021/11/09 03:54:52;;;;;;;;;23.00;22.50;;;;;20.21;39.79;102141.47;4959528;28;51134;-52
2021/11/09 03:57:30;;;;;;;;;25.50;24.00;;;;;20.20;40.04;102145.28;4964842;28;51241;-52
2021/11/09 04:02:48;;;;;;;;;29.00;25.50;;;;;20.19;40.02;102141.69;4962357;28;51430;-52
2021/11/09 04:05:17;;;;;;;;;26.25;26.25;;;;;20.17;40.11;102137.41;4957777;28;51324;-48
2021/11/09 04:07:59;;;;;;;;;30.25;25.75;;;;;20.17;39.78;102148.41;4971107;28;51062;-54
2021/11/09 04:10:56;;;;;;;;;34.25;28.25;;;;;20.17;40.11;102143.78;4972943;28;51848;-50
2021/11/09 04:13:26;;;;;;;;;28.25;25.00;;;;;20.15;39.78;102145.00;4968337;28;51143;-54
2021/11/09 04:29:32;;;;;;;;;34.25;28.75;;;;;20.11;40.18;102150.03;4956530;28;51218;-52
2021/11/09 04:50:48;;;;;;;;;29.75;28.75;;;;;20.06;40.18;102162.66;4953971;28;51171;-51
2021/11/09 05:09:45;;;;;;;;;34.50;30.75;;;;;20.00;40.11;102194.50;4970912;28;51230;-52
2021/11/09 05:12:11;;;;;;;;;45.50;37.50;;;;;19.99;39.72;102184.53;4959035;28;51000;-52
2021/11/09 05:14:36;;;;;;;;;49.75;41.75;;;;;19.98;39.09;102193.81;4981388;28;53075;-51
2021/11/09 05:17:02;;;;;;;;;53.75;42.25;;;;;19.94;39.25;102184.25;4975574;28;51217;-50
2021/11/09 05:19:28;;;;;;;;;53.75;44.00;;;;;19.92;38.91;102194.59;4989569;28;51166;-51
2021/11/09 05:21:54;;;;;;;;;52.50;42.25;;;;;19.87;38.81;102197.88;4957787;28;51093;-52
2021/11/09 05:24:20;;;;;;;;;55.75;45.25;;;;;19.84;38.55;102191.91;4972369;28;52149;-50
2021/11/09 05:26:46;;;;;;;;;53.25;43.00;;;;;19.80;38.76;102201.53;4968145;28;51167;-50
2021/11/09 05:29:13;;;;;;;;;57.50;46.50;;;;;19.75;38.41;102196.63;4956139;28;51137;-51
2021/11/09 05:31:40;;;;;;;;;53.25;43.00;;;;;19.72;38.33;102208.00;4956346;28;51225;-50
2021/11/09 05:34:06;;;;;;;;;55.25;46.25;;;;;19.69;38.26;102212.97;4972280;28;51698;-51
2021/11/09 05:36:35;;;;;;;;;58.25;45.75;;;;;19.63;38.33;102209.09;4975057;28;50946;-53
2021/11/09 05:41:42;;;;;;;;;55.75;44.25;;;;;19.59;38.24;102205.88;4967157;28;51040;-51
2021/11/09 05:44:08;;;;;;;;;53.50;41.75;;;;;19.63;38.47;102211.00;4959650;28;52844;-50
2021/11/09 05:46:36;;;;;;;;;52.00;42.00;;;;;19.71;38.21;102202.69;4965017;28;51650;-50
2021/11/09 05:49:03;;;;;;;;;47.00;38.25;;;;;19.79;38.53;102208.09;4974871;28;51154;-54
2021/11/09 05:51:29;;;;;;;;;48.75;38.00;;;;;19.87;38.32;102206.13;4974760;28;51041;-50
2021/11/09 05:53:55;;;;;;;;;42.25;36.25;;;;;19.96;38.50;102208.81;4961552;28;51048;-51
2021/11/09 05:56:20;;;;;;;;;48.50;38.50;;;;;20.04;38.44;102214.25;4970704;28;51117;-51
2021/11/09 05:58:46;;;;;;;;;44.00;36.25;;;;;20.11;38.51;102215.19;4955693;28;51078;-51
2021/11/09 06:01:11;;;;;;;;;47.00;36.00;;;;;20.20;38.52;102214.06;4962837;28;51198;-52
2021/11/09 06:03:37;;;;;;;;;45.25;34.00;;;;;20.28;38.99;102224.16;4967275;28;51190;-51
2021/11/09 06:06:03;;;;;;;;;33.75;30.75;;;;;20.34;38.56;102220.66;4966230;28;51000;-50
2021/11/09 06:08:28;;;;;;;;;38.25;32.25;;;;;20.42;38.41;102226.94;4968541;28;50988;-50
2021/11/09 06:10:54;;;;;;;;;35.25;32.00;;;;;20.50;38.72;102222.38;4973008;28;51489;-50
2021/11/09 06:13:19;;;;;;;;;36.75;30.00;;;;;20.57;38.42;102223.34;4964519;28;51179;-51
2021/11/09 06:15:45;;;;;;;;;30.25;29.75;;;;;20.63;38.74;102237.19;4960258;28;51175;-52
2021/11/09 06:18:10;;;;;;;;;44.50;32.75;;;;;20.70;38.63;102237.28;5000424;28;51110;-52
2021/11/09 06:20:36;;;;;;;;;30.75;27.25;;;;;20.78;38.56;102241.84;4971593;27;51001;-51
2021/11/09 06:23:02;;;;;;;;;29.50;25.00;;;;;20.84;38.24;102247.47;4957610;28;52575;-50
2021/11/09 06:25:28;;;;;;;;;29.00;27.75;;;;;20.90;38.72;102235.66;4957921;28;51028;-50
2021/11/09 06:27:53;;;;;;;;;29.75;27.00;;;;;20.95;38.59;102244.22;4965198;28;51703;-48
2021/11/09 06:30:21;;;;;;;;;32.75;30.25;;;;;21.02;38.90;102244.28;4953629;28;51322;-51
2021/11/09 06:32:47;;;;;;;;;29.50;28.25;;;;;21.09;38.23;102238.88;4965514;28;51702;-51
2021/11/09 06:35:13;;;;;;;;;32.75;27.25;;;;;21.15;38.36;102244.44;4961601;28;51188;-51
2021/11/09 06:37:38;;;;;;;;;29.50;24.50;;;;;21.21;38.55;102246.44;4956925;28;51201;-49
2021/11/09 06:40:06;;;;;;;;;26.00;24.50;;;;;21.27;38.36;102253.97;4969596;28;51386;-50
2021/11/09 06:42:32;;;;;;;;;25.75;23.25;;;;;21.32;38.39;102251.47;4956033;28;51112;-49
2021/11/09 06:44:58;;;;;;;;;26.25;24.50;;;;;21.36;38.50;102251.94;4954434;28;51157;-48
2021/11/09 06:47:23;;;;;;;;;21.75;20.50;;;;;21.37;38.54;102258.34;4961546;28;51331;-49
2021/11/09 06:49:49;;;;;;;;;28.50;20.75;;;;;21.36;38.51;102264.88;4970239;28;51275;-47
2021/11/09 06:52:14;;;;;;;;;26.50;23.50;;;;;21.32;38.31;102259.75;4966091;28;51879;-46
2021/11/09 06:54:41;;;;;;;;;24.50;21.50;;;;;21.31;38.46;102260.81;4974335;28;51130;-49
2021/11/09 06:57:07;;;;;;;;;23.50;22.75;;;;;21.29;38.91;102264.81;4974785;28;51203;-49
2021/11/09 06:59:32;;;;;;;;;25.00;20.75;;;;;21.27;38.80;102266.91;4975064;28;51202;-47
2021/11/09 07:01:58;;;;;;;;;16.00;16.00;;;;;21.24;39.14;102259.81;4962476;28;51976;-49
2021/11/09 07:04:24;;;;;;;;;23.75;19.00;;;;;21.26;39.00;102266.06;4960933;28;51308;-48
2021/11/09 07:06:50;;;;;;;;;20.25;18.75;;;;;21.31;38.81;102265.47;4965169;28;51142;-50
2021/11/09 07:09:16;;;;;;;;;21.75;21.00;;;;;21.36;38.52;102259.34;4964528;28;51379;-50
2021/11/09 07:11:41;;;;;;;;;22.25;20.25;;;;;21.41;39.03;102260.50;4971190;28;50992;-53
2021/11/09 07:14:07;;;;;;;;;28.50;21.00;;;;;21.47;39.20;102267.16;4965104;28;51105;-53
2021/11/09 07:16:32;;;;;;;;;23.00;20.75;;;;;21.50;38.98;102269.50;4957929;28;51215;-49
2021/11/09 07:19:08;;;;;;;;;20.75;20.00;;;;;21.53;38.60;102267.19;4970750;28;51331;-47
2021/11/09 07:21:33;;;;;;;;;20.25;18.00;;;;;21.56;38.98;102274.22;4960710;28;51991;-51
2021/11/09 07:23:59;;;;;;;;;19.75;18.50;;;;;21.59;38.51;102273.84;4959470;28;51143;-54
2021/11/09 07:26:26;;;;;;;;;21.25;18.25;;;;;21.62;38.61;102278.97;4958566;28;51189;-50
2021/11/09 07:28:52;;;;;;;;;22.00;19.00;;;;;21.63;38.58;102277.06;4957702;28;51588;-49
2021/11/09 07:31:19;;;;;;;;;21.75;18.75;;;;;21.62;39.01;102278.97;4962424;28;51939;-50
2021/11/09 07:33:45;;;;;;;;;20.25;17.00;;;;;21.59;38.63;102282.13;4965595;28;51591;-50
2021/11/09 07:36:11;;;;;;;;;21.50;20.25;;;;;21.57;38.88;102282.31;4971037;28;51165;-49
2021/11/09 07:38:36;;;;;;;;;22.50;20.50;;;;;21.53;38.98;102283.75;4982995;28;51418;-50
2021/11/09 07:41:02;;;;;;;;;23.50;19.75;;;;;21.51;38.83;102285.00;4966243;28;50937;-50
2021/11/09 07:43:28;;;;;;;;;18.25;17.25;;;;;21.48;38.84;102288.16;4969739;28;51153;-53
2021/11/09 07:45:53;;;;;;;;;21.25;18.25;;;;;21.45;38.65;102288.53;4971286;28;51424;-53
2021/11/09 07:48:19;;;;;;;;;20.00;16.75;;;;;21.43;38.89;102299.75;4962503;28;51025;-52
2021/11/09 07:50:44;;;;;;;;;21.75;19.50;;;;;21.45;39.07;102292.13;4979407;28;51422;-52
2021/11/09 07:53:16;;;;;;;;;17.75;16.75;;;;;21.48;39.06;102301.94;4966132;28;51018;-52
2021/11/09 07:55:51;;;;;;;;;19.25;16.25;;;;;21.50;39.51;102306.19;4963884;28;51379;-54
2021/11/09 07:58:30;;;;;;;;;19.25;17.75;;;;;21.54;39.28;102312.16;4965121;28;51242;-53
2021/11/09 08:01:06;;;;;;;;;22.00;19.50;;;;;21.55;39.20;102306.47;4966788;28;52827;-52
2021/11/09 08:03:38;;;;;;;;;26.50;23.25;;;;;21.53;38.77;102300.28;4960216;28;52125;-54
2021/11/09 08:06:18;;;;;;;;;26.75;20.50;;;;;21.49;39.25;102306.41;4954305;28;51181;-51
2021/11/09 08:11:21;;;;;;;;;19.75;18.75;;;;;21.40;38.89;102310.31;4954141;28;50957;-53
2021/11/09 08:13:47;;;;;;;;;21.25;18.25;;;;;21.33;39.32;102299.19;4954086;28;50889;-50
2021/11/09 08:16:13;;;;;;;;;20.50;17.75;;;;;21.29;38.76;102314.41;4954537;28;51003;-51
2021/11/09 08:18:39;;;;;;;;;19.75;16.50;;;;;21.27;38.79;102311.00;4954300;28;51326;-52
2021/11/09 08:21:05;;;;;;;;;20.75;19.50;;;;;21.22;38.83;102314.28;4953930;28;51663;-52
2021/11/09 08:23:32;;;;;;;;;22.00;19.50;;;;;21.18;39.33;102306.63;4953913;28;50963;-50
2021/11/09 08:25:57;;;;;;;;;17.00;16.25;;;;;21.16;39.28;102311.47;4956269;28;51201;-53
2021/11/09 08:28:23;;;;;;;;;20.75;19.75;;;;;21.11;38.98;102316.69;4993429;28;50989;-52
2021/11/09 08:30:51;;;;;;;;;20.75;19.25;;;;;21.09;38.85;102313.28;4993132;28;51017;-54
2021/11/09 08:33:18;;;;;;;;;23.50;17.75;;;;;21.04;38.89;102324.84;4993235;28;51318;-52
2021/11/09 08:35:44;;;;;;;;;20.50;16.75;;;;;21.01;38.90;102322.47;4992738;28;51044;-52
2021/11/09 08:38:09;;;;;;;;;19.00;16.75;;;;;20.98;39.20;102320.13;4992699;28;51157;-51
2021/11/09 08:40:36;;;;;;;;;16.25;14.75;;;;;20.94;39.02;102322.38;4992514;28;51566;-51
2021/11/09 08:43:03;;;;;;;;;19.75;17.75;;;;;20.91;39.37;102319.16;4992842;28;51028;-53
2021/11/09 08:45:37;;;;;;;;;18.50;17.00;;;;;20.88;39.34;102325.06;4991773;28;51175;-52
2021/11/09 08:48:24;;;;;;;;;17.25;17.25;;;;;20.86;38.77;102327.16;4992404;28;50908;-52
2021/11/09 08:50:53;;;;;;;;;19.00;16.00;;;;;20.83;39.08;102322.00;4992668;28;51597;-52
2021/11/09 08:53:30;;;;;;;;;20.50;18.50;;;;;20.79;38.98;102321.53;4992565;28;51053;-53
2021/11/09 09:06:14;;;;;;;;;19.50;18.00;;;;;20.69;39.30;102326.47;4992505;28;51029;-51
2021/11/09 09:08:39;;;;;;;;;23.50;18.25;;;;;20.66;39.22;102321.34;4992812;28;51218;-54
2021/11/09 09:11:05;;;;;;;;;20.25;16.25;;;;;20.64;39.29;102321.53;4992329;28;51942;-50
2021/11/09 09:13:30;;;;;;;;;23.25;16.00;;;;;20.63;39.22;102319.78;4992506;28;51217;-52
2021/11/09 09:15:56;;;;;;;;;16.25;14.50;;;;;20.61;39.15;102321.03;4992736;28;51053;-53
2021/11/09 09:18:22;;;;;;;;;18.25;18.25;;;;;20.59;39.33;102321.22;4992344;28;50982;-52
2021/11/09 09:21:01;;;;;;;;;18.00;14.50;;;;;20.57;39.21;102326.06;4992369;28;51064;-51
2021/11/09 09:23:35;;;;;;;;;16.50;15.25;;;;;20.56;39.24;102320.75;4992381;28;51003;-54
2021/11/09 09:26:14;;;;;;;;;16.25;14.00;;;;;20.55;39.35;102316.28;4998949;28;50998;-54
2021/11/09 09:29:03;;;;;;;;;20.00;15.50;;;;;20.54;39.24;102309.06;5075637;27;51038;-52
2021/11/09 09:31:43;;;;;;;;;15.25;13.50;;;;;20.53;39.40;102315.59;5074881;28;51744;-51
2021/11/09 09:56:15;;;;;;;;;13.75;12.75;;;;;20.48;39.40;102307.91;5074948;27;51169;-53
2021/11/09 09:58:40;;;;;;;;;12.00;12.00;;;;;20.49;39.19;102308.78;5078447;27;51160;-52
2021/11/09 10:01:05;;;;;;;;;16.75;15.25;;;;;20.50;39.34;102307.72;5078394;27;50953;-50
2021/11/09 10:03:39;;;;;;;;;13.00;12.50;;;;;20.48;39.20;102310.66;5077976;27;51671;-51
2021/11/09 10:06:06;;;;;;;;;12.75;11.00;;;;;20.48;39.19;102310.66;5077995;27;51416;-52
2021/11/09 10:08:48;;;;;;;;;13.25;13.00;;;;;20.50;39.11;102308.56;5078085;27;50916;-51
2021/11/09 10:11:34;;;;;;;;;15.00;13.75;;;;;20.51;39.23;102298.41;5078312;27;51004;-51
2021/11/09 10:14:01;;;;;;;;;10.75;10.75;;;;;20.51;39.08;102302.03;5077567;27;51069;-51
2021/11/09 10:16:27;;;;;;;;;10.50;10.50;;;;;20.52;39.17;102297.38;5077824;27;51423;-51
2021/11/09 10:18:52;;;;;;;;;12.00;11.50;;;;;20.52;39.11;102292.72;5077913;27;51174;-50
2021/11/09 10:21:17;;;;;;;;;13.75;9.00;;;;;20.54;38.72;102301.66;5078265;27;51135;-51
2021/11/09 10:23:43;;;;;;;;;13.00;13.00;;;;;20.55;39.05;102295.13;5077645;27;52634;-53
2021/11/09 10:26:17;;;;;;;;;12.25;11.00;;;;;20.57;38.92;102297.69;5066353;27;51109;-51
2021/11/09 10:28:45;;;;;;;;;17.00;14.50;;;;;20.58;38.61;102296.63;4994661;28;51279;-53
2021/11/09 10:31:15;;;;;;;;;12.50;10.25;;;;;20.59;38.58;102290.09;4995007;28;51052;-53
2021/11/09 10:33:42;;;;;;;;;12.00;11.00;;;;;20.58;38.93;102286.47;4994240;28;52956;-53
2021/11/09 10:36:19;;;;;;;;;13.50;12.50;;;;;20.61;38.66;102286.09;4994575;28;51150;-52
2021/11/09 10:38:45;;;;;;;;;11.00;10.50;;;;;20.62;38.45;102281.44;4994093;28;51163;-52
2021/11/09 10:41:11;;;;;;;;;13.25;9.75;;;;;20.63;38.91;102284.00;4994621;28;51141;-52
2021/11/09 10:43:36;;;;;;;;;16.25;11.25;;;;;20.65;38.72;102284.69;4994029;28;51026;-50
2021/11/09 10:46:02;;;;;;;;;17.00;12.00;;;;;20.66;38.39;102286.41;4994205;28;51017;-50
2021/11/09 10:48:28;;;;;;;;;13.00;10.00;;;;;20.67;38.81;102284.50;4993891;28;51258;-52
2021/11/09 10:50:59;;;;;;;;;11.50;8.75;;;;;20.68;38.55;102276.03;4994486;28;51259;-54
2021/11/09 10:53:43;;;;;;;;;11.25;10.25;;;;;20.69;38.35;102287.91;4993736;28;51174;-54
2021/11/09 11:04:36;;;;;;;;;10.50;9.25;;;;;20.72;38.47;102268.25;4994113;28;51379;-55
2021/11/09 11:07:04;;;;;;;;;8.75;8.75;;;;;20.72;38.36;102266.34;4994216;28;51142;-53
2021/11/09 11:09:30;;;;;;;;;11.25;9.50;;;;;20.74;38.58;102260.66;4993388;28;51110;-52
2021/11/09 11:11:59;;;;;;;;;12.50;10.75;;;;;20.73;38.59;102254.28;4994200;28;50891;-52
2021/11/09 11:14:29;;;;;;;;;11.00;11.00;;;;;20.74;38.41;102257.91;4992461;28;52906;-52
2021/11/09 11:17:00;;;;;;;;;10.75;9.00;;;;;20.74;38.36;102253.25;4993823;28;51402;-50
2021/11/09 11:19:40;;;;;;;;;9.25;9.00;;;;;20.75;38.49;102252.22;4993550;28;51138;-52
2021/11/09 11:22:11;;;;;;;;;12.50;10.00;;;;;20.76;38.14;102253.06;4994034;28;50976;-52
2021/11/09 11:24:38;;;;;;;;;7.75;7.00;;;;;20.75;38.40;102249.47;4993450;28;52251;-53
2021/11/09 11:27:05;;;;;;;;;10.25;7.75;;;;;20.76;38.66;102242.06;5036626;28;51092;-52
2021/11/09 11:29:36;;;;;;;;;12.25;11.25;;;;;20.75;38.08;102241.19;5076663;27;51078;-52
2021/11/09 11:32:04;;;;;;;;;9.00;8.75;;;;;20.76;38.19;102239.31;5076891;27;51191;-53
2021/11/09 11:34:29;;;;;;;;;12.00;8.50;;;;;20.75;38.41;102230.19;5076500;27;51818;-52
2021/11/09 11:36:55;;;;;;;;;8.75;7.25;;;;;20.75;38.51;102230.19;5076851;27;51026;-53
2021/11/09 11:39:24;;;;;;;;;10.50;9.75;;;;;20.76;38.50;102228.28;5076771;28;51209;-54
2021/11/09 11:41:56;;;;;;;;;8.75;8.00;;;;;20.75;38.28;102224.69;5077047;27;51283;-51
2021/11/09 11:44:24;;;;;;;;;11.00;9.00;;;;;20.75;38.01;102215.56;5076489;28;51041;-52
2021/11/09 11:46:52;;;;;;;;;7.75;7.75;;;;;20.74;38.45;102211.09;5076506;28;51336;-53
2021/11/09 11:49:26;;;;;;;;;7.50;6.25;;;;;20.74;38.66;102209.19;5075903;27;51117;-53
2021/11/09 11:51:54;;;;;;;;;10.25;7.25;;;;;20.74;38.57;102206.44;5076428;27;51178;-53
2021/11/09 11:54:39;;;;;;;;;9.50;9.25;;;;;20.73;38.36;102203.84;5075683;28;52087;-53
2021/11/09 11:57:05;;;;;;;;;7.75;7.00;;;;;20.71;38.57;102198.56;5076424;28;50958;-54
2021/11/09 11:59:33;;;;;;;;;7.25;6.00;;;;;20.70;38.45;102196.84;5076182;27;51147;-52
2021/11/09 12:02:03;;;;;;;;;8.50;8.50;;;;;20.69;38.53;102195.13;5076354;28;51132;-53
2021/11/09 12:04:41;;;;;;;;;10.00;8.00;;;;;20.69;38.36;102197.91;5075703;27;51088;-53
2021/11/09 12:07:09;;;;;;;;;11.50;9.00;;;;;20.68;38.70;102196.19;5075967;28;51102;-52
2021/11/09 12:09:37;;;;;;;;;9.00;9.00;;;;;20.66;38.50;102191.94;5074661;28;51056;-53
2021/11/09 12:12:11;;;;;;;;;10.00;8.50;;;;;20.65;38.35;102184.72;5076124;27;51312;-52
2021/11/09 12:14:56;;;;;;;;;8.75;7.00;;;;;20.64;38.61;102181.09;5075583;28;52151;-51
2021/11/09 12:17:42;;;;;;;;;10.75;7.50;;;;;20.62;38.41;102172.16;5076008;27;51061;-51
2021/11/09 12:20:16;;;;;;;;;11.50;7.00;;;;;20.60;38.56;102174.25;5075258;27;51008;-53
2021/11/09 12:22:47;;;;;;;;;9.75;8.00;;;;;20.60;38.76;102174.25;5075633;27;51027;-53
2021/11/09 12:25:34;;;;;;;;;6.50;6.50;;;;;20.58;38.56;102170.00;5075556;27;51962;-51
2021/11/09 12:28:09;;;;;;;;;8.00;6.75;;;;;20.57;38.91;102162.78;5000635;27;51321;-53
2021/11/09 12:30:35;;;;;;;;;6.50;6.50;;;;;20.54;38.63;102158.53;4992674;28;51104;-50
2021/11/09 12:33:22;;;;;;;;;8.00;5.25;;;;;20.54;38.67;102158.53;4992799;28;51047;-51
2021/11/09 12:36:11;;;;;;;;;7.00;7.00;;;;;20.53;38.48;102156.81;4992377;28;51986;-53
2021/11/09 12:38:45;;;;;;;;;7.25;5.50;;;;;20.52;38.79;102157.84;4992198;28;51088;-52
2021/11/09 12:41:17;;;;;;;;;10.75;8.25;;;;;20.51;38.98;102156.13;4992194;28;51187;-51
2021/11/09 12:43:53;;;;;;;;;7.75;7.75;;;;;20.50;38.95;102148.06;4992779;28;51118;-51
2021/11/09 12:46:38;;;;;;;;;6.50;5.75;;;;;20.48;38.80;102148.25;4992263;28;52723;-52
2021/11/09 12:49:25;;;;;;;;;6.75;5.75;;;;;20.45;38.84;102152.25;4992342;28;51203;-53
2021/11/09 12:51:54;;;;;;;;;7.00;7.00;;;;;20.46;38.75;102155.88;4992542;28;51042;-52
2021/11/09 12:54:24;;;;;;;;;12.50;9.25;;;;;20.44;38.83;102144.19;4992609;28;51040;-53
2021/11/09 12:56:53;;;;;;;;;9.50;6.50;;;;;20.43;38.88;102142.50;4992339;27;51092;-53
2021/11/09 13:07:52;;;;;;;;;8.00;5.00;;;;;20.40;38.95;102135.41;4992004;28;51195;-52
2021/11/09 13:09:58;;;;;;;;;6.50;5.50;;;;;20.39;38.63;102141.97;4987742;28;51348;-53
2021/11/09 13:12:30;;;;;;;;;7.25;6.00;;;;;20.38;38.63;102132.00;4991699;28;51197;-51
2021/11/09 13:15:14;;;;;;;;;5.50;5.50;;;;;20.38;38.73;102134.75;4992163;28;51176;-52
2021/11/09 13:17:47;;;;;;;;;5.25;5.25;;;;;20.37;38.89;102137.69;4991213;28;52090;-53
2021/11/09 13:22:55;;;;;;;;;8.50;5.00;;;;;20.36;38.98;102133.25;4991391;28;51017;-54
2021/11/09 13:25:35;;;;;;;;;7.00;4.75;;;;;20.35;39.21;102137.03;4991984;28;51249;-52
2021/11/09 13:28:11;;;;;;;;;5.75;5.00;;;;;20.34;38.92;102143.59;5066713;28;51996;-53
2021/11/09 13:30:38;;;;;;;;;7.00;6.00;;;;;20.32;39.24;102127.28;5074776;27;51335;-52
2021/11/09 13:33:04;;;;;;;;;9.25;5.00;;;;;20.33;38.83;102128.13;5077232;28;51211;-51
2021/11/09 13:35:35;;;;;;;;;5.25;5.25;;;;;20.32;39.09;102137.41;5078663;27;51140;-52
2021/11/09 13:38:13;;;;;;;;;9.25;5.00;;;;;20.31;39.01;102130.19;5077649;27;51763;-52
2021/11/09 13:40:42;;;;;;;;;5.00;4.50;;;;;20.29;38.91;102127.63;5078494;27;51072;-52
2021/11/09 13:43:10;;;;;;;;;9.75;7.75;;;;;20.29;39.28;102126.78;5078224;27;51471;-53
2021/11/09 13:45:38;;;;;;;;;5.75;5.75;;;;;20.28;38.96;102125.94;5078497;27;51129;-54